METAR Reports From Nearby Airports

 

KLUD - Decatur, Texas, USA
Distance from Wildwood: ESE 5mi, 8km
Updated: Apr 08, 2020 3:15pm
Clear
Clear
 Wind from WSW
Wind: WSW 13 mph , 20 km/h, Gust: 25 mph , 41 km/h
Temperature: 91°F , 33°C
Dew Point: 45°F , 7°C
Humidity: 20%
Barometer: 29.80 inHg , 1009.1 hPa
Clouds: Clear
Visibility: 10 miles , 16 km
2020/04/08 20:15 KLUD 082015Z AUTO 24011G22KT 10SM CLR 33/07 A2980 RMK AO2 T03260067
KXBP - Bridgeport, Texas, USA
Distance from Wildwood: WSW 11mi, 18km
Updated: Apr 08, 2020 3:15pm
Clear
Clear
 Wind from W
Wind: W 12 mph , 19 km/h, Gust: 18 mph , 30 km/h
Temperature: 91°F , 33°C
Dew Point: 45°F , 7°C
Humidity: 20%
Barometer: 29.80 inHg , 1009.1 hPa
Clouds: Clear
Visibility: 10 miles , 16 km
2020/04/08 20:15 KXBP 082015Z AUTO 26010G16KT 10SM CLR 33/07 A2980 RMK AO2 T03270071
 
K0F2 - Bowie, Texas, USA
Distance from Wildwood: NNW 24mi, 39km
Updated: Apr 08, 2020 3:15pm
Clear
Clear
 Wind from W
Wind: W 13 mph , 20 km/h, Gust: 16 mph , 26 km/h
Temperature: 93°F , 34°C
Dew Point: 54°F , 12°C
Humidity: 26%
Barometer: 29.80 inHg , 1009.1 hPa
Clouds: Clear
Visibility: 10 miles , 16 km
2020/04/08 20:15 K0F2 082015Z AUTO 28011G14KT 10SM CLR 34/12 A2980 RMK AO2 T03380123
KDTO - Denton, Texas, USA
Distance from Wildwood: E 27mi, 44km
Updated: Apr 08, 2020 2:53pm
Haze, Clear
Haze, Clear
 Wind from WSW
Wind: WSW 15 mph , 24 km/h, Gust: 24 mph , 39 km/h
Temperature: 91°F , 33°C
Dew Point: 55°F , 13°C
Humidity: 30%
Barometer: 29.78 inHg , 1008.5 hPa
Summary: Haze
Clouds: Clear
Visibility: 6 miles , 10 km
2020/04/08 19:53 KDTO 081953Z 24013G21KT 6SM HZ CLR 33/13 A2978 RMK AO2 SLP076 T03330133
 
KAFW - Ft Worth/Allianc, Texas, USA
Distance from Wildwood: SE 29mi, 46km
Updated: Apr 08, 2020 2:53pm
Partly Cloudy
Partly Cloudy
 Wind from WSW
Wind: WSW 15 mph , 24 km/h, Gust: 23 mph , 37 km/h
Temperature: 91°F , 33°C
Dew Point: 57°F , 14°C
Humidity: 32%
Barometer: 29.79 inHg , 1008.8 hPa
Clouds: Partly Cloudy
Visibility: 10 miles , 16 km
Cloud details: Partly Cloudy 30000 ft
2020/04/08 19:53 KAFW 081953Z 25013G20KT 10SM SCT300 33/14 A2979 RMK AO2 SLP070 T03330139
KFTW - Fort Worth, Texas, USA
Distance from Wildwood: SSE 34mi, 55km
Updated: Apr 08, 2020 2:53pm
Haze, Clear
Haze, Clear
 Wind from W
Wind: W 15 mph , 24 km/h, Gust: 25 mph , 41 km/h
Temperature: 90°F , 32°C
Dew Point: 57°F , 14°C
Humidity: 33%
Barometer: 29.79 inHg , 1008.8 hPa
Summary: Haze
Clouds: Clear
Visibility: 4 miles , 6 km
2020/04/08 19:53 KFTW 081953Z 26013G22KT 4SM HZ CLR 32/14 A2979 RMK AO2 SLP076 T03170139
 
KNFW - Fort Worth Nas, Texas, USA
Distance from Wildwood: SSE 36mi, 58km
Updated: Apr 08, 2020 2:52pm
Few Clouds
Few Clouds
 Wind from WSW
Wind: WSW 18 mph , 30 km/h, Gust: 22 mph , 35 km/h
Temperature: 93°F , 34°C
Dew Point: 57°F , 14°C
Humidity: 30%
Barometer: 29.79 inHg , 1008.8 hPa
Clouds: Few Clouds
Visibility: 10 miles , 16 km
Cloud details: Few Clouds 25000 ft
2020/04/08 19:52 KNFW 081952Z 25016G19KT 10SM FEW250 34/14 A2979 RMK AO2 SLP073 T03440139 VISNO N $
KGLE - Gainesville, Texas, USA
Distance from Wildwood: NE 38mi, 61km
Updated: Apr 08, 2020 3:15pm
Clear
Clear
 Wind from SW
Wind: SW 14 mph , 22 km/h, Gust: 18 mph , 30 km/h
Temperature: 91°F , 33°C
Dew Point: 54°F , 12°C
Humidity: 28%
Barometer: 29.78 inHg , 1008.5 hPa
Clouds: Clear
Visibility: 10 miles , 16 km
2020/04/08 20:15 KGLE 082015Z AUTO 23012G16KT 10SM CLR 33/12 A2978 RMK AO2 T03260124 PWINO
 
KMWL - Mineral Wells, Texas, USA
Distance from Wildwood: SW 41mi, 65km
Updated: Apr 08, 2020 2:53pm
Clear
Clear
 Wind from W
Wind: W 14 mph , 22 km/h, Gust: 23 mph , 37 km/h
Temperature: 93°F , 34°C
Dew Point: 46°F , 8°C
Humidity: 20%
Barometer: 29.80 inHg , 1009.1 hPa
Clouds: Clear
Visibility: 10 miles , 16 km
2020/04/08 19:53 KMWL 081953Z AUTO 27012G20KT 10SM CLR 34/08 A2980 RMK AO2 SLP077 T03390083
KDFW - Dallas/Ft Worth, Texas, USA
Distance from Wildwood: ESE 45mi, 73km
Updated: Apr 08, 2020 2:53pm
Few Clouds
Few Clouds
 Wind from WSW
Wind: WSW 18 mph , 30 km/h, Gust: 28 mph , 44 km/h
Temperature: 93°F , 34°C
Dew Point: 54°F , 12°C
Humidity: 26%
Barometer: 29.77 inHg , 1008.1 hPa
Clouds: Few Clouds
Visibility: 10 miles , 16 km
Cloud details: Few Clouds 20000 ft
Few Clouds 30000 ft
2020/04/08 19:53 KDFW 081953Z 24016G24KT 10SM FEW200 FEW300 34/12 A2977 RMK AO2 PK WND 23026/1941 SLP072 T03440122